createdAt,value
2018-06-05T00:00:06.724Z,18.92
2018-06-05T00:01:06.742Z,18.84
2018-06-05T00:02:06.763Z,18.68
2018-06-05T00:03:06.787Z,18.41
2018-06-05T00:04:06.808Z,18.41
2018-06-05T00:05:06.842Z,18.37
2018-06-05T00:06:06.852Z,18.45
2018-06-05T00:07:06.866Z,18.75
2018-06-05T00:08:06.890Z,18.58
2018-06-05T00:09:06.923Z,18.65
2018-06-05T00:10:06.928Z,18.55
2018-06-05T00:11:06.949Z,18.41
2018-06-05T00:12:06.973Z,18.43
2018-06-05T00:13:06.995Z,18.43
2018-06-05T00:14:07.015Z,18.56
2018-06-05T00:15:07.031Z,18.55
2018-06-05T00:16:07.089Z,18.49
2018-06-05T00:17:07.116Z,18.29
2018-06-05T00:18:07.095Z,18.33
2018-06-05T00:19:07.117Z,18.22
2018-06-05T00:20:07.147Z,18.43
2018-06-05T00:21:07.170Z,18.41
2018-06-05T00:22:07.186Z,18.33
2018-06-05T00:23:07.208Z,18.43
2018-06-05T00:24:07.228Z,18.68
2018-06-05T00:25:07.245Z,18.86
2018-06-05T00:26:07.275Z,18.86
2018-06-05T00:27:07.300Z,18.68
2018-06-05T00:28:07.312Z,18.65
2018-06-05T00:29:07.349Z,18.66
2018-06-05T00:30:07.369Z,18.58
2018-06-05T00:31:07.376Z,18.65
2018-06-05T00:32:07.391Z,18.68
2018-06-05T00:33:07.450Z,18.65
2018-06-05T00:34:07.457Z,18.84
2018-06-05T00:35:07.472Z,18.96
2018-06-05T00:36:07.480Z,18.95
2018-06-05T00:37:07.505Z,18.81
2018-06-05T00:38:07.560Z,18.98
2018-06-05T00:39:07.538Z,19.15
2018-06-05T00:40:07.568Z,19.07
2018-06-05T00:41:07.576Z,18.86
2018-06-05T00:42:07.627Z,18.92
2018-06-05T00:43:07.619Z,18.89
2018-06-05T00:44:07.641Z,18.81
2018-06-05T00:45:07.660Z,18.89
2018-06-05T00:46:07.681Z,18.81
2018-06-05T00:47:07.726Z,18.92
2018-06-05T00:48:07.736Z,18.89
2018-06-05T00:49:07.755Z,18.86
2018-06-05T00:50:07.778Z,18.80
2018-06-05T00:51:07.793Z,19.02
2018-06-05T00:52:07.817Z,19.14
2018-06-05T00:53:07.835Z,19.27
2018-06-05T00:54:07.864Z,19.51
2018-06-05T00:55:07.886Z,19.48
2018-06-05T00:56:07.900Z,19.71
2018-06-05T00:57:07.939Z,19.45
2018-06-05T00:58:07.951Z,19.26
2018-06-05T00:59:07.992Z,19.51
2018-06-05T01:00:08.001Z,19.59
2018-06-05T01:01:07.999Z,19.73
2018-06-05T01:02:08.024Z,19.94
2018-06-05T01:03:08.053Z,20.03
2018-06-05T01:04:08.065Z,19.99
2018-06-05T01:05:08.098Z,20.14
2018-06-05T01:06:08.114Z,19.89
2018-06-05T01:07:08.131Z,19.76
2018-06-05T01:08:08.147Z,19.77
2018-06-05T01:09:08.171Z,19.85
2018-06-05T01:10:08.187Z,19.81
2018-06-05T01:11:08.222Z,19.88
2018-06-05T01:12:08.241Z,19.76
2018-06-05T01:13:08.256Z,20.04
2018-06-05T01:14:08.297Z,20.25
2018-06-05T01:15:08.324Z,20.21
2018-06-05T01:16:08.338Z,20.02
2018-06-05T01:17:08.342Z,19.92
2018-06-05T01:18:08.367Z,20.16
2018-06-05T01:19:08.385Z,20.26
2018-06-05T01:20:08.414Z,20.24
2018-06-05T01:21:08.426Z,20.26
2018-06-05T01:22:08.451Z,20.28
2018-06-05T01:23:08.491Z,20.14
2018-06-05T01:24:08.492Z,20.24
2018-06-05T01:25:08.537Z,20.28
2018-06-05T01:26:08.530Z,20.32
2018-06-05T01:27:08.551Z,20.34
2018-06-05T01:28:08.581Z,20.16
2018-06-05T01:29:08.610Z,20.26
2018-06-05T01:30:08.703Z,20.32
2018-06-05T01:31:08.643Z,19.66
2018-06-05T01:32:08.661Z,19.48
2018-06-05T01:33:08.681Z,19.71
2018-06-05T01:34:08.711Z,19.45
2018-06-05T01:35:08.733Z,19.34
2018-06-05T01:36:08.745Z,19.45
2018-06-05T01:37:08.776Z,19.66
2018-06-05T01:38:08.791Z,19.84
2018-06-05T01:39:08.817Z,20.02
2018-06-05T01:40:08.839Z,19.95
2018-06-05T01:41:08.861Z,19.84
2018-06-05T01:42:08.874Z,19.62
2018-06-05T01:43:08.886Z,19.47
2018-06-05T01:44:08.914Z,19.49
2018-06-05T01:45:08.934Z,19.44
2018-06-05T01:46:08.961Z,19.55
2018-06-05T01:47:08.989Z,19.79
2018-06-05T01:48:09.012Z,19.62
2018-06-05T01:49:09.037Z,19.67
2018-06-05T01:50:09.058Z,19.51
2018-06-05T01:51:09.085Z,19.26
2018-06-05T01:52:09.082Z,19.51
2018-06-05T01:53:09.105Z,19.56
2018-06-05T01:54:09.119Z,19.71
2018-06-05T01:55:09.159Z,19.82
2018-06-05T01:56:09.184Z,19.76
2018-06-05T01:57:09.219Z,19.86
2018-06-05T01:58:09.218Z,19.88
2018-06-05T01:59:09.258Z,19.79
2018-06-05T02:00:09.281Z,19.95
2018-06-05T02:01:09.273Z,19.96
2018-06-05T02:02:09.290Z,19.88
2018-06-05T02:03:09.326Z,19.95
2018-06-05T02:04:09.337Z,19.89
2018-06-05T02:05:09.356Z,19.86
2018-06-05T02:06:09.386Z,19.89
2018-06-05T02:07:09.396Z,20.06
2018-06-05T02:08:09.445Z,19.95
2018-06-05T02:09:09.440Z,20.04
2018-06-05T02:10:09.457Z,20.13
2018-06-05T02:11:09.502Z,20.14
2018-06-05T02:12:09.499Z,20.14
2018-06-05T02:13:09.522Z,20.22
2018-06-05T02:14:09.547Z,20.31
2018-06-05T02:15:09.573Z,20.32
2018-06-05T02:16:09.583Z,20.25
2018-06-05T02:17:09.619Z,20.13
2018-06-05T02:18:09.628Z,20.10
2018-06-05T02:19:09.648Z,19.88
2018-06-05T02:20:09.662Z,19.81
2018-06-05T02:21:09.687Z,19.89
2018-06-05T02:22:09.722Z,19.99
2018-06-05T02:23:09.747Z,19.88
2018-06-05T02:24:09.753Z,19.91
2018-06-05T02:25:09.772Z,19.84
2018-06-05T02:26:09.792Z,20.06
2018-06-05T02:27:09.814Z,20.04
2018-06-05T02:28:09.849Z,19.89
2018-06-05T02:29:09.882Z,19.62
2018-06-05T02:30:09.911Z,19.84
2018-06-05T02:31:09.905Z,19.92
2018-06-05T02:32:09.943Z,19.85
2018-06-05T02:33:09.966Z,19.84
2018-06-05T02:34:09.970Z,20.02
2018-06-05T02:35:09.988Z,19.94
2018-06-05T02:36:10.005Z,19.69
2018-06-05T02:37:10.025Z,19.74
2018-06-05T02:38:10.063Z,19.85
2018-06-05T02:39:10.075Z,19.37
2018-06-05T02:40:10.093Z,19.37
2018-06-05T02:41:10.112Z,19.22
2018-06-05T02:42:10.128Z,19.08
2018-06-05T02:43:10.182Z,19.15
2018-06-05T02:44:10.178Z,19.14
2018-06-05T02:45:10.190Z,19.12
2018-06-05T02:46:10.228Z,19.02
2018-06-05T02:47:10.235Z,19.16
2018-06-05T02:48:10.258Z,19.34
2018-06-05T02:49:10.282Z,19.44
2018-06-05T02:50:10.300Z,19.37
2018-06-05T02:51:10.368Z,19.30
2018-06-05T02:52:10.342Z,19.52
2018-06-05T02:53:10.361Z,19.47
2018-06-05T02:54:10.416Z,19.31
2018-06-05T02:55:10.407Z,19.29
2018-06-05T02:56:10.422Z,19.14
2018-06-05T02:57:10.445Z,19.36
2018-06-05T02:58:10.467Z,19.27
2018-06-05T02:59:10.488Z,19.31
2018-06-05T03:00:10.510Z,19.44
2018-06-05T03:01:10.531Z,19.49
2018-06-05T03:02:10.560Z,19.51
2018-06-05T03:03:10.571Z,19.47
2018-06-05T03:04:10.607Z,19.48
2018-06-05T03:05:10.612Z,19.21
2018-06-05T03:06:10.630Z,18.95
2018-06-05T03:07:10.644Z,18.84
2018-06-05T03:08:10.680Z,18.95
2018-06-05T03:09:10.691Z,19.19
2018-06-05T03:10:10.711Z,19.21
2018-06-05T03:11:10.744Z,19.29
2018-06-05T03:12:10.777Z,19.24
2018-06-05T03:13:10.774Z,19.27
2018-06-05T03:14:10.822Z,19.24
2018-06-05T03:15:10.826Z,19.37
2018-06-05T03:16:10.848Z,19.39
2018-06-05T03:17:10.862Z,19.39
2018-06-05T03:18:10.887Z,19.36
2018-06-05T03:19:10.896Z,19.39
2018-06-05T03:20:10.919Z,19.27
2018-06-05T03:21:10.942Z,19.30
2018-06-05T03:22:10.958Z,19.37
2018-06-05T03:23:10.997Z,19.29
2018-06-05T03:24:11.001Z,19.14
2018-06-05T03:25:11.034Z,19.30
2018-06-05T03:26:11.042Z,19.33
2018-06-05T03:27:11.065Z,19.22
2018-06-05T03:28:11.086Z,19.45
2018-06-05T03:29:11.109Z,19.26
2018-06-05T03:30:11.149Z,19.16
2018-06-05T03:31:11.153Z,19.31
2018-06-05T03:32:11.167Z,19.26
2018-06-05T03:33:11.189Z,19.39
2018-06-05T03:34:11.210Z,19.27
2018-06-05T03:35:11.237Z,19.18
2018-06-05T03:36:11.257Z,19.15
2018-06-05T03:37:11.278Z,18.84
2018-06-05T03:38:11.296Z,18.62
2018-06-05T03:39:11.314Z,18.96
2018-06-05T03:40:11.346Z,18.88
2018-06-05T03:41:11.356Z,18.89
2018-06-05T03:42:11.384Z,19.04
2018-06-05T03:43:11.407Z,19.08
2018-06-05T03:44:11.417Z,18.99
2018-06-05T03:45:11.436Z,19.02
2018-06-05T03:46:11.459Z,19.11
2018-06-05T03:47:11.476Z,18.98
2018-06-05T03:48:11.496Z,18.84
2018-06-05T03:49:11.517Z,18.89
2018-06-05T03:50:11.570Z,19.00
2018-06-05T03:51:11.623Z,18.81
2018-06-05T03:52:11.611Z,18.83
2018-06-05T03:53:11.606Z,18.88
2018-06-05T03:54:11.637Z,18.89
2018-06-05T03:55:11.644Z,18.59
2018-06-05T03:56:11.662Z,18.71
2018-06-05T03:57:11.740Z,18.71
2018-06-05T03:58:11.704Z,18.80
2018-06-05T03:59:11.725Z,18.70
2018-06-05T04:00:11.766Z,18.63
2018-06-05T04:01:11.764Z,18.38
2018-06-05T04:02:11.789Z,18.34
2018-06-05T04:03:11.811Z,18.28
2018-06-05T04:04:11.827Z,18.34
2018-06-05T04:05:11.849Z,18.44
2018-06-05T04:06:11.868Z,18.63
2018-06-05T04:07:11.895Z,18.74
2018-06-05T04:08:11.917Z,18.78
2018-06-05T04:09:11.941Z,18.84
2018-06-05T04:10:11.948Z,18.75
2018-06-05T04:11:11.969Z,18.75
2018-06-05T04:12:11.995Z,18.86
2018-06-05T04:13:12.033Z,18.83
2018-06-05T04:14:12.045Z,19.04
2018-06-05T04:15:12.056Z,19.04
2018-06-05T04:16:12.079Z,19.12
2018-06-05T04:17:12.117Z,18.98
2018-06-05T04:18:12.126Z,19.22
2018-06-05T04:19:12.140Z,19.26
2018-06-05T04:20:12.164Z,19.27
2018-06-05T04:21:12.198Z,19.29
2018-06-05T04:22:12.198Z,18.95
2018-06-05T04:23:12.233Z,19.07
2018-06-05T04:24:12.238Z,18.99
2018-06-05T04:25:12.261Z,18.88
2018-06-05T04:26:12.284Z,18.75
2018-06-05T04:27:12.353Z,18.83
2018-06-05T04:28:12.355Z,18.89
2018-06-05T04:29:12.344Z,18.89
2018-06-05T04:30:12.378Z,18.81
2018-06-05T04:31:12.393Z,18.66
2018-06-05T04:32:12.415Z,18.99
2018-06-05T04:33:12.437Z,19.09
2018-06-05T04:34:12.453Z,18.92
2018-06-05T04:35:12.467Z,18.83
2018-06-05T04:36:12.530Z,18.60
2018-06-05T04:37:12.525Z,18.62
2018-06-05T04:38:12.535Z,18.62
2018-06-05T04:39:12.557Z,18.86
2018-06-05T04:40:12.588Z,18.75
2018-06-05T04:41:12.597Z,18.86
2018-06-05T04:42:12.622Z,18.28
2018-06-05T04:43:12.630Z,18.35
2018-06-05T04:44:12.655Z,18.44
2018-06-05T04:45:12.677Z,18.65
2018-06-05T04:46:12.695Z,18.60
2018-06-05T04:47:12.713Z,18.68
2018-06-05T04:48:12.740Z,18.81
2018-06-05T04:49:12.763Z,18.89
2018-06-05T04:50:12.785Z,19.08
2018-06-05T04:51:12.805Z,19.24
2018-06-05T04:52:12.836Z,19.11
2018-06-05T04:53:12.884Z,19.14
2018-06-05T04:54:12.859Z,19.16
2018-06-05T04:55:12.878Z,19.16
2018-06-05T04:56:12.901Z,18.84
2018-06-05T04:57:12.920Z,19.00
2018-06-05T04:58:12.937Z,19.16
2018-06-05T04:59:12.984Z,19.27
2018-06-05T05:00:12.980Z,19.27
2018-06-05T05:01:13.000Z,19.29
2018-06-05T05:02:13.021Z,19.29
2018-06-05T05:03:13.043Z,19.27
2018-06-05T05:04:13.063Z,19.29
2018-06-05T05:05:13.119Z,19.26
2018-06-05T05:06:13.111Z,19.18
2018-06-05T05:07:13.122Z,19.02
2018-06-05T05:08:13.143Z,18.99
2018-06-05T05:09:13.165Z,19.00
2018-06-05T05:10:13.191Z,19.11
2018-06-05T05:11:13.211Z,19.04
2018-06-05T05:12:13.224Z,19.31
2018-06-05T05:13:13.248Z,19.29
2018-06-05T05:14:13.267Z,19.26
2018-06-05T05:15:13.293Z,19.34
2018-06-05T05:16:13.326Z,19.44
2018-06-05T05:17:13.351Z,19.52
2018-06-05T05:18:13.361Z,19.45
2018-06-05T05:19:13.379Z,19.45
2018-06-05T05:20:13.397Z,19.52
2018-06-05T05:21:13.427Z,19.44
2018-06-05T05:22:13.444Z,19.27
2018-06-05T05:23:13.463Z,19.49
2018-06-05T05:24:13.480Z,19.45
2018-06-05T05:25:13.506Z,19.51
2018-06-05T05:26:13.528Z,19.66
2018-06-05T05:27:13.544Z,19.74
2018-06-05T05:28:13.563Z,19.71
2018-06-05T05:29:13.595Z,19.89
2018-06-05T05:30:13.606Z,19.74
2018-06-05T05:31:13.622Z,19.63
2018-06-05T05:32:13.661Z,19.59
2018-06-05T05:33:13.665Z,19.64
2018-06-05T05:34:13.697Z,19.74
2018-06-05T05:35:13.729Z,19.81
2018-06-05T05:36:13.736Z,19.84
2018-06-05T05:37:13.746Z,19.86
2018-06-05T05:38:13.772Z,20.02
2018-06-05T05:39:13.831Z,19.89
2018-06-05T05:40:13.829Z,19.88
2018-06-05T05:41:13.837Z,19.52
2018-06-05T05:42:13.858Z,19.67
2018-06-05T05:43:13.901Z,19.63
2018-06-05T05:44:13.895Z,19.76
2018-06-05T05:45:13.927Z,19.82
2018-06-05T05:46:13.942Z,19.70
2018-06-05T05:47:13.961Z,19.39
2018-06-05T05:48:13.981Z,19.63
2018-06-05T05:49:14.023Z,19.69
2018-06-05T05:50:14.039Z,19.66
2018-06-05T05:51:14.067Z,19.59
2018-06-05T05:52:14.071Z,19.48
2018-06-05T05:53:14.109Z,19.73
2018-06-05T05:54:14.110Z,19.37
2018-06-05T05:55:14.149Z,19.34
2018-06-05T05:56:14.152Z,19.14
2018-06-05T05:57:14.186Z,19.33
2018-06-05T05:58:14.201Z,19.36
2018-06-05T05:59:14.217Z,19.34
2018-06-05T06:00:14.264Z,19.45
2018-06-05T06:01:14.255Z,19.34
2018-06-05T06:02:14.391Z,19.27
2018-06-05T06:03:14.296Z,19.45
2018-06-05T06:04:14.318Z,19.34
2018-06-05T06:05:14.336Z,18.95
2018-06-05T06:06:14.363Z,18.90
2018-06-05T06:07:14.396Z,18.88
2018-06-05T06:08:14.410Z,18.66
2018-06-05T06:09:14.431Z,18.75
2018-06-05T06:10:14.470Z,18.80
2018-06-05T06:11:14.470Z,18.96
2018-06-05T06:12:14.493Z,19.18
2018-06-05T06:13:14.521Z,18.88
2018-06-05T06:14:14.531Z,19.07
2018-06-05T06:15:14.568Z,18.80
2018-06-05T06:16:14.584Z,18.95
2018-06-05T06:17:14.614Z,18.74
2018-06-05T06:18:14.619Z,18.74
2018-06-05T06:19:14.638Z,19.07
2018-06-05T06:20:14.658Z,19.37
2018-06-05T06:21:14.677Z,19.41
2018-06-05T06:22:14.699Z,19.62
2018-06-05T06:23:14.721Z,19.33
2018-06-05T06:24:14.759Z,19.11
2018-06-05T06:25:14.816Z,18.89
2018-06-05T06:26:14.784Z,18.70
2018-06-05T06:27:14.805Z,18.65
2018-06-05T06:28:14.837Z,18.65
2018-06-05T06:29:14.853Z,18.66
2018-06-05T06:30:14.864Z,18.66
2018-06-05T06:31:14.903Z,18.68
2018-06-05T06:32:14.906Z,18.74
2018-06-05T06:33:14.929Z,18.62
2018-06-05T06:34:14.954Z,18.44
2018-06-05T06:35:14.973Z,18.44
2018-06-05T06:36:14.998Z,18.50
2018-06-05T06:37:15.012Z,18.44
2018-06-05T06:38:15.029Z,18.52
2018-06-05T06:39:15.083Z,18.58
2018-06-05T06:40:15.082Z,18.75
2018-06-05T06:41:15.111Z,18.74
2018-06-05T06:42:15.118Z,18.59
2018-06-05T06:43:15.146Z,18.33
2018-06-05T06:44:15.162Z,18.53
2018-06-05T06:45:15.185Z,18.52
2018-06-05T06:46:15.204Z,18.84
2018-06-05T06:47:15.219Z,18.71
2018-06-05T06:48:15.240Z,18.70
2018-06-05T06:49:15.261Z,18.62
2018-06-05T06:50:15.275Z,18.83
2018-06-05T06:51:15.304Z,18.83
2018-06-05T06:52:15.324Z,18.63
2018-06-05T06:53:15.344Z,19.07
2018-06-05T06:54:15.362Z,18.81
2018-06-05T06:55:15.406Z,18.59
2018-06-05T06:56:15.418Z,18.80
2018-06-05T06:57:15.429Z,18.63
2018-06-05T06:58:15.450Z,18.58
2018-06-05T06:59:15.510Z,18.88
2018-06-05T07:00:15.501Z,18.96
2018-06-05T07:01:15.511Z,18.63
2018-06-05T07:02:15.578Z,18.63
2018-06-05T07:03:15.553Z,18.73
2018-06-05T07:04:15.569Z,18.84
2018-06-05T07:05:15.596Z,18.53
2018-06-05T07:06:15.610Z,18.44
2018-06-05T07:07:15.629Z,18.52
2018-06-05T07:08:15.664Z,18.58
2018-06-05T07:09:15.681Z,18.80
2018-06-05T07:10:15.704Z,18.99
2018-06-05T07:11:15.721Z,19.09
2018-06-05T07:12:15.750Z,19.26
2018-06-05T07:13:15.764Z,19.31
2018-06-05T07:14:15.773Z,19.08
2018-06-05T07:15:15.797Z,18.88
2018-06-05T07:16:15.817Z,18.96
2018-06-05T07:17:15.839Z,18.58
2018-06-05T07:18:15.892Z,18.49
2018-06-05T07:19:15.888Z,18.59
2018-06-05T07:20:15.902Z,18.38
2018-06-05T07:21:15.929Z,18.71
2018-06-05T07:22:15.969Z,18.93
2018-06-05T07:23:15.987Z,18.59
2018-06-05T07:24:15.989Z,18.35
2018-06-05T07:25:16.015Z,18.56
2018-06-05T07:26:16.041Z,18.74
2018-06-05T07:27:16.044Z,18.74
2018-06-05T07:28:16.073Z,18.71
2018-06-05T07:29:16.092Z,18.45
2018-06-05T07:30:16.182Z,18.74
2018-06-05T07:31:16.160Z,18.83
2018-06-05T07:32:16.159Z,18.78
2018-06-05T07:33:16.203Z,18.65
2018-06-05T07:34:16.190Z,18.62
2018-06-05T07:35:16.212Z,18.89
2018-06-05T07:36:16.272Z,19.16
2018-06-05T07:37:16.253Z,18.78
2018-06-05T07:38:16.279Z,18.89
2018-06-05T07:39:16.316Z,18.84
2018-06-05T07:40:16.317Z,18.96
2018-06-05T07:41:16.335Z,18.99
2018-06-05T07:42:16.360Z,18.73
2018-06-05T07:43:16.388Z,19.04
2018-06-05T07:44:16.441Z,19.18
2018-06-05T07:45:16.421Z,19.47
2018-06-05T07:46:16.446Z,19.34
2018-06-05T07:47:16.463Z,19.08
2018-06-05T07:48:16.490Z,19.16
2018-06-05T07:49:16.510Z,19.30
2018-06-05T07:50:16.561Z,19.00
2018-06-05T07:51:16.547Z,18.66
2018-06-05T07:52:16.573Z,19.04
2018-06-05T07:53:16.596Z,19.04
2018-06-05T07:54:16.607Z,18.88
2018-06-05T07:55:16.631Z,19.00
2018-06-05T07:56:16.662Z,19.18
2018-06-05T07:57:16.672Z,19.21
2018-06-05T07:58:16.686Z,19.22
2018-06-05T07:59:16.728Z,19.12
2018-06-05T08:00:16.734Z,19.14
2018-06-05T08:01:16.752Z,19.29
2018-06-05T08:02:16.780Z,19.39
2018-06-05T08:03:16.796Z,19.44
2018-06-05T08:04:16.831Z,19.52
2018-06-05T08:05:16.852Z,19.64
2018-06-05T08:06:16.862Z,19.51
2018-06-05T08:07:16.882Z,19.54
2018-06-05T08:08:16.903Z,19.94
2018-06-05T08:09:16.925Z,19.81
2018-06-05T08:10:16.943Z,19.82
2018-06-05T08:11:16.975Z,19.71
2018-06-05T08:12:16.985Z,19.64
2018-06-05T08:13:17.013Z,19.64
2018-06-05T08:14:17.026Z,19.84
2018-06-05T08:15:17.071Z,19.81
2018-06-05T08:16:17.080Z,19.79
2018-06-05T08:17:17.101Z,19.84
2018-06-05T08:18:17.114Z,19.82
2018-06-05T08:19:17.148Z,19.58
2018-06-05T08:20:17.163Z,19.92
2018-06-05T08:21:17.179Z,19.79
2018-06-05T08:22:17.207Z,19.79
2018-06-05T08:23:17.245Z,19.84
2018-06-05T08:24:17.259Z,19.85
2018-06-05T08:25:17.262Z,19.73
2018-06-05T08:26:17.283Z,19.84
2018-06-05T08:27:17.315Z,19.86
2018-06-05T08:28:17.329Z,20.14
2018-06-05T08:29:17.356Z,20.13
2018-06-05T08:30:17.384Z,20.16
2018-06-05T08:31:17.400Z,20.32
2018-06-05T08:32:17.429Z,20.29
2018-06-05T08:33:17.438Z,20.24
2018-06-05T08:34:17.462Z,19.76
2018-06-05T08:35:17.476Z,19.91
2018-06-05T08:36:17.514Z,19.74
2018-06-05T08:37:17.517Z,19.88
2018-06-05T08:38:17.548Z,19.92
2018-06-05T08:39:17.561Z,19.91
2018-06-05T08:40:17.589Z,19.77
2018-06-05T08:41:17.615Z,19.62
2018-06-05T08:42:17.629Z,19.84
2018-06-05T08:43:17.647Z,19.67
2018-06-05T08:44:17.670Z,19.88
2018-06-05T08:45:17.761Z,19.89
2018-06-05T08:46:17.720Z,20.34
2018-06-05T08:47:17.751Z,20.13
2018-06-05T08:48:17.760Z,19.94
2018-06-05T08:49:17.785Z,19.99
2018-06-05T08:50:17.793Z,20.52
2018-06-05T08:51:17.837Z,20.87
2018-06-05T08:52:17.847Z,20.93
2018-06-05T08:53:17.868Z,20.81
2018-06-05T08:54:17.918Z,20.62
2018-06-05T08:55:17.909Z,20.25
2018-06-05T08:56:17.938Z,20.22
2018-06-05T08:57:17.971Z,20.50
2018-06-05T08:58:17.978Z,20.56
2018-06-05T08:59:18.005Z,20.84
2018-06-05T09:00:18.026Z,20.50
2018-06-05T09:01:18.050Z,20.63
2018-06-05T09:02:18.056Z,20.24
2018-06-05T09:03:18.102Z,20.34
2018-06-05T09:04:18.118Z,20.34
2018-06-05T09:05:18.184Z,20.43
2018-06-05T09:06:18.149Z,20.62
2018-06-05T09:07:18.189Z,20.99
2018-06-05T09:08:18.196Z,20.72
2018-06-05T09:09:18.214Z,20.88
2018-06-05T09:10:18.235Z,21.06
2018-06-05T09:11:18.267Z,21.40
2018-06-05T09:12:18.287Z,20.97
2018-06-05T09:13:18.305Z,21.06
2018-06-05T09:14:18.332Z,21.02
2018-06-05T09:15:18.347Z,20.92
2018-06-05T09:16:18.368Z,20.96
2018-06-05T09:17:18.391Z,21.27
2018-06-05T09:18:18.416Z,21.29
2018-06-05T09:19:18.439Z,21.48
2018-06-05T09:20:18.456Z,21.24
2018-06-05T09:21:18.481Z,21.73
2018-06-05T09:22:18.503Z,21.77
2018-06-05T09:23:18.526Z,21.92
2018-06-05T09:24:18.535Z,22.06
2018-06-05T09:25:18.560Z,21.62
2018-06-05T09:26:18.579Z,21.55
2018-06-05T09:27:18.603Z,21.57
2018-06-05T09:28:18.650Z,21.67
2018-06-05T09:29:18.660Z,21.61
2018-06-05T09:30:18.702Z,21.69
2018-06-05T09:31:18.699Z,21.54
2018-06-05T09:32:18.714Z,21.61
2018-06-05T09:33:18.743Z,21.52
2018-06-05T09:34:18.805Z,21.85
2018-06-05T09:35:18.808Z,22.08
2018-06-05T09:36:18.835Z,21.96
2018-06-05T09:37:18.842Z,22.23
2018-06-05T09:38:18.852Z,21.29
2018-06-05T09:39:18.880Z,21.33
2018-06-05T09:40:18.892Z,21.20
2018-06-05T09:41:18.924Z,21.43
2018-06-05T09:42:18.961Z,21.77
2018-06-05T09:43:18.971Z,21.99
2018-06-05T09:44:18.980Z,22.18
2018-06-05T09:45:19.055Z,22.36
2018-06-05T09:46:19.021Z,21.55
2018-06-05T09:47:19.061Z,21.48
2018-06-05T09:48:19.090Z,21.55
2018-06-05T09:49:19.111Z,21.99
2018-06-05T09:50:19.119Z,22.17
2018-06-05T09:51:19.136Z,21.93
2018-06-05T09:52:19.170Z,22.08
2018-06-05T09:53:19.182Z,21.93
2018-06-05T09:54:19.210Z,21.75
2018-06-05T09:55:19.237Z,21.55
2018-06-05T09:56:19.257Z,21.70
2018-06-05T09:57:19.276Z,21.98
2018-06-05T09:58:19.395Z,22.18
2018-06-05T09:59:19.346Z,22.33
2018-06-05T10:00:19.359Z,22.45
2018-06-05T10:01:19.356Z,22.54
2018-06-05T10:02:19.378Z,22.62
2018-06-05T10:03:19.439Z,22.68
2018-06-05T10:04:19.460Z,22.14
2018-06-05T10:05:19.465Z,21.79
2018-06-05T10:06:19.506Z,22.20
2018-06-05T10:07:19.498Z,22.69
2018-06-05T10:08:19.531Z,23.05
2018-06-05T10:09:19.551Z,23.15
2018-06-05T10:10:19.575Z,23.15
2018-06-05T10:11:19.585Z,23.05
2018-06-05T10:12:19.615Z,22.90
2018-06-05T10:13:19.648Z,23.12
2018-06-05T10:14:19.666Z,23.20
2018-06-05T10:15:19.676Z,23.23
2018-06-05T10:16:19.741Z,23.17
2018-06-05T10:17:19.737Z,23.41
2018-06-05T10:18:19.765Z,23.34
2018-06-05T10:19:19.771Z,23.12
2018-06-05T10:20:19.825Z,23.23
2018-06-05T10:21:19.825Z,23.37
2018-06-05T10:22:19.859Z,23.24
2018-06-05T10:23:19.868Z,23.36
2018-06-05T10:24:19.899Z,23.62
2018-06-05T10:25:19.908Z,23.91
2018-06-05T10:26:19.931Z,23.98
2018-06-05T10:27:19.966Z,23.48
2018-06-05T10:28:19.991Z,23.50
2018-06-05T10:29:20.020Z,23.44
2018-06-05T10:30:20.032Z,23.62
2018-06-05T10:31:20.063Z,23.69
2018-06-05T10:32:20.095Z,23.84
2018-06-05T10:33:20.107Z,24.05
2018-06-05T10:34:20.129Z,23.12
2018-06-05T10:35:20.153Z,22.65
2018-06-05T10:36:20.172Z,21.92
2018-06-05T10:37:20.211Z,21.72
2018-06-05T10:38:20.217Z,21.76
2018-06-05T10:39:20.232Z,22.02
2018-06-05T10:40:20.256Z,22.00
2018-06-05T10:41:20.309Z,22.63
2018-06-05T10:42:20.328Z,23.05
2018-06-05T10:43:20.326Z,23.10
2018-06-05T10:44:20.357Z,22.98
2018-06-05T10:45:20.389Z,23.17
2018-06-05T10:46:20.414Z,23.12
2018-06-05T10:47:20.427Z,22.91
2018-06-05T10:48:20.487Z,23.34
2018-06-05T10:49:20.472Z,23.47
2018-06-05T10:50:20.497Z,22.72
2018-06-05T10:51:20.521Z,23.25
2018-06-05T10:52:20.541Z,23.84
2018-06-05T10:53:20.558Z,24.13
2018-06-05T10:54:20.588Z,24.01
2018-06-05T10:55:20.622Z,24.08
2018-06-05T10:56:20.647Z,24.35
2018-06-05T10:57:20.677Z,24.61
2018-06-05T10:58:20.675Z,24.40
2018-06-05T10:59:20.725Z,24.61
2018-06-05T11:00:20.760Z,24.63
2018-06-05T11:01:20.768Z,24.54
2018-06-05T11:02:20.776Z,24.76
2018-06-05T11:03:20.793Z,23.80
2018-06-05T11:04:20.839Z,23.39
2018-06-05T11:05:20.848Z,23.00
2018-06-05T11:06:20.868Z,23.05
2018-06-05T11:07:20.896Z,22.83
2018-06-05T11:08:20.912Z,22.73
2018-06-05T11:09:20.940Z,23.48
2018-06-05T11:10:20.967Z,23.10
2018-06-05T11:11:20.984Z,22.66
2018-06-05T11:12:21.018Z,22.54
2018-06-05T11:13:21.045Z,22.55
2018-06-05T11:14:21.059Z,22.72
2018-06-05T11:15:21.096Z,23.31
2018-06-05T11:16:21.121Z,23.83
2018-06-05T11:17:21.127Z,24.16
2018-06-05T11:18:21.199Z,23.59
2018-06-05T11:19:21.177Z,24.05
2018-06-05T11:20:21.196Z,23.66
2018-06-05T11:21:21.220Z,23.39
2018-06-05T11:22:21.248Z,23.37
2018-06-05T11:23:21.280Z,23.40
2018-06-05T11:24:21.303Z,23.98
2018-06-05T11:25:21.336Z,23.91
2018-06-05T11:26:21.335Z,23.69
2018-06-05T11:27:21.370Z,23.68
2018-06-05T11:28:21.412Z,23.25
2018-06-05T11:29:21.409Z,23.12
2018-06-05T11:30:21.452Z,23.15
2018-06-05T11:31:21.461Z,23.63
2018-06-05T11:32:21.493Z,23.91
2018-06-05T11:33:21.507Z,23.47
2018-06-05T11:34:21.539Z,23.20
2018-06-05T11:35:21.557Z,22.99
2018-06-05T11:36:21.591Z,23.25
2018-06-05T11:37:21.615Z,23.43
2018-06-05T11:38:21.630Z,24.03
2018-06-05T11:39:21.674Z,23.83
2018-06-05T11:40:21.682Z,24.16
2018-06-05T11:41:21.700Z,24.58
2018-06-05T11:42:21.725Z,23.54
2018-06-05T11:43:21.751Z,24.30
2018-06-05T11:44:21.774Z,24.61
2018-06-05T11:45:21.791Z,24.91
2018-06-05T11:46:21.818Z,24.60
2018-06-05T11:47:21.848Z,24.60
2018-06-05T11:48:21.885Z,23.62
2018-06-05T11:49:21.895Z,23.10
2018-06-05T11:50:21.922Z,23.09
2018-06-05T11:51:21.936Z,23.40
2018-06-05T11:52:21.969Z,23.40
2018-06-05T11:53:21.984Z,23.68
2018-06-05T11:54:22.005Z,22.98
2018-06-05T11:55:22.053Z,23.13
2018-06-05T11:56:22.053Z,23.50
2018-06-05T11:57:22.077Z,23.37
2018-06-05T11:58:22.103Z,24.03
2018-06-05T11:59:22.159Z,24.54
2018-06-05T12:00:22.151Z,25.35
2018-06-05T12:01:22.175Z,25.80
2018-06-05T12:02:22.207Z,25.93
2018-06-05T12:03:22.231Z,26.02
2018-06-05T12:04:22.247Z,26.65
2018-06-05T12:05:22.271Z,26.93
2018-06-05T12:06:22.292Z,26.84
2018-06-05T12:07:22.319Z,25.28
2018-06-05T12:08:22.348Z,24.51
2018-06-05T12:09:22.374Z,25.26
2018-06-05T12:10:22.420Z,24.24
2018-06-05T12:11:22.430Z,24.33
2018-06-05T12:12:22.452Z,24.36
2018-06-05T12:13:22.471Z,25.38
2018-06-05T12:14:22.498Z,25.50
2018-06-05T12:15:22.536Z,25.59
2018-06-05T12:16:22.542Z,25.87
2018-06-05T12:17:22.569Z,26.19
2018-06-05T12:18:22.597Z,26.60
2018-06-05T12:19:22.612Z,26.44
2018-06-05T12:20:22.638Z,25.87
2018-06-05T12:21:22.664Z,26.13
2018-06-05T12:22:22.684Z,25.81
2018-06-05T12:23:22.707Z,26.15
2018-06-05T12:24:22.753Z,26.43
2018-06-05T12:25:22.799Z,26.40
2018-06-05T12:26:22.801Z,26.22
2018-06-05T12:27:22.808Z,26.05
2018-06-05T12:28:22.835Z,26.28
2018-06-05T12:29:22.867Z,26.53
2018-06-05T12:30:22.887Z,25.72
2018-06-05T12:31:22.902Z,25.60
2018-06-05T12:32:22.928Z,25.75
2018-06-05T12:33:22.951Z,25.50
2018-06-05T12:34:22.979Z,24.91
2018-06-05T12:35:23.003Z,24.61
2018-06-05T12:36:23.026Z,24.35
2018-06-05T12:37:23.060Z,25.21
2018-06-05T12:38:23.080Z,25.14
2018-06-05T12:39:23.107Z,24.99
2018-06-05T12:40:23.130Z,24.66
2018-06-05T12:41:23.163Z,24.63
2018-06-05T12:42:23.166Z,24.77
2018-06-05T12:43:23.211Z,25.69
2018-06-05T12:44:23.226Z,25.95
2018-06-05T12:45:23.244Z,26.16
2018-06-05T12:46:23.303Z,26.34
2018-06-05T12:47:23.294Z,26.68
2018-06-05T12:48:23.325Z,26.06
2018-06-05T12:49:23.346Z,25.21
2018-06-05T12:50:23.363Z,25.46
2018-06-05T12:51:23.408Z,25.63
2018-06-05T12:52:23.427Z,25.62